ADDS METAR Data INFO
IDs: Format: Raw Decoded Include TAF

Data at: 1953 UTC 15 Dec 2017

KLEX 151854Z 21009G21KT 10SM 01/M07 A3004 RMK AO2 SLP181 T00111067 $
KLEX 151814Z 26014G22KT 10SM SCT028 01/M07 A3005 RMK AO2 T00111067
KLEX 151754Z 24012KT 10SM OVC029 00/M07 A3006 RMK AO2 SLP189 T00001072 10000 21039 58004
KLEX 151654Z 26011G21KT 10SM OVC029 M01/M08 A3008 RMK AO2 SLP196 T10061078
KLEX 151647Z 27010G20KT 10SM OVC029 M01/M08 A3008 RMK AO2 T10061078
KLEX 151554Z 26010KT 10SM OVC032 M01/M08 A3008 RMK AO2 SLP195 T10061078
KLEX 151454Z 26009KT 10SM SCT035 M01/M07 A3008 RMK AO2 SLP194 T10061072 53014
KLEX 151354Z 25006KT 10SM OVC034 M02/M07 A3005 RMK AO2 SLP185 T10221072
KLEX 151254Z 00000KT 8SM OVC032 M03/M07 A3004 RMK AO2 SLP181 T10331072
KLEX 151154Z 00000KT 10SM OVC034 M04/M07 A3003 RMK AO2 SLP180 T10391072 11033 21039 55001
KLEX 151054Z 00000KT 10SM OVC035 M04/M07 A3002 RMK AO2 SLP176 T10391072
KLEX 150954Z 28004KT 10SM OVC035 M04/M07 A3003 RMK AO2 SLP176 T10391072
KLEX 150854Z 00000KT 10SM OVC033 M03/M08 A3004 RMK AO2 SLP179 T10331078 56005
KLEX 150754Z 00000KT 10SM OVC033 M03/M08 A3004 RMK AO2 SLP180 T10331078
KLEX 150654Z 00000KT 10SM OVC034 M03/M08 A3004 RMK AO2 SLP181 T10331083
KLEX 150554Z 03004KT 10SM OVC035 M03/M08 A3006 RMK AO2 SLP186 T10331083 11006 21050 58001
KLEX 150454Z AUTO 07005KT 10SM OVC035 M04/M08 A3007 RMK AO2 SLP190 T10391078 400781050
KLEX 150354Z 04006KT 10SM OVC036 M04/M08 A3006 RMK AO2 SLP187 T10441083
KLEX 150254Z 04006KT 10SM CLR M04/M08 A3006 RMK AO2 SLP188 T10441083 51006
KLEX 150154Z 05010KT 10SM CLR M03/M08 A3005 RMK AO2 SLP184 T10281078
KLEX 150054Z 02009KT 10SM CLR M02/M07 A3006 RMK AO2 SLP187 T10221072
KLEX 142354Z 00000KT 10SM CLR M01/M08 A3004 RMK AO2 SLP181 T10061078 10028 21017 51014
KLEX 142254Z 36003KT 10SM CLR 01/M09 A3002 RMK AO2 SLP172 T00061089
KLEX 142154Z 00000KT 10SM CLR 01/M09 A3003 RMK AO2 SLP174 T00111094
KLEX 142054Z VRB04KT 10SM CLR 03/M09 A3000 RMK AO2 SLP164 T00281089 53001
KLEX 141954Z 35004KT 10SM CLR 03/M09 A2999 RMK AO2 SLP161 T00281089
KLEX 141854Z VRB03KT 10SM FEW036 02/M09 A2999 RMK AO2 SLP159 T00221089
KLEX 141754Z 00000KT 10SM OVC030 01/M07 A3000 RMK AO2 SLP162 T00111072 10011 21011 50003
KLEX 141749Z 30006KT 10SM BKN030 01/M08 A3000 RMK AO2
KLEX 141654Z 33005KT 10SM OVC027 00/M07 A3000 RMK AO2 SLP163 T00001072
KLEX 141554Z 04007KT 10SM OVC027 00/M07 A2999 RMK AO2 SLP159 T00001067
KLEX 141454Z 36008KT 10SM OVC026 00/M07 A2997 RMK AO2 SLP152 T00001067 53024
KLEX 141412Z 34008KT 10SM OVC028 00/M07 A2995 RMK AO2 T00001067
KLEX 141354Z 35009KT 10SM OVC030 M01/M07 A2995 RMK AO2 SLP146 T10061067
KLEX 141254Z 33008KT 10SM OVC033 M01/M07 A2991 RMK AO2 SLP134 T10111067
KLEX 141154Z 33011G21KT 10SM OVC035 M01/M07 A2989 RMK AO2 SLP128 T10061067 10061 21006 53027
KLEX 141129Z 33013KT 10SM OVC033 00/M07 A2988 RMK AO2 T00001067
KLEX 141104Z 34013KT 10SM OVC028 01/M06 A2986 RMK AO2 T00111056
KLEX 141054Z 32011G20KT 10SM OVC030 01/M06 A2985 RMK AO2 SLP115 T00111056
KLEX 140954Z 30011G20KT 10SM SCT027 OVC035 02/M04 A2981 RMK AO2 SLP100 T00221044
KLEX 140854Z 29011KT 10SM OVC024 03/M03 A2978 RMK AO2 PK WND 27027/0831 SLP089 T00331028 51045
KLEX 140829Z 28013G21KT 10SM OVC028 03/M03 A2977 RMK AO2 T00331028
KLEX 140810Z 28012G23KT 10SM OVC031 03/M03 A2976 RMK AO2 T00331028
KLEX 140754Z 28012G21KT 10SM BKN028 OVC034 04/M02 A2975 RMK AO2 PK WND 29031/0703 SLP077 T00391022